sensor_id;sensor_type;location;lat;lon;timestamp;pressure;altitude;pressure_sealevel;temperature;humidity
30618;BME280;17384;51.214;9.202;2023-09-18T00:00:21;98095.91;;;14.91;100.00
30618;BME280;17384;51.214;9.202;2023-09-18T00:02:47;98095.13;;;14.96;100.00
30618;BME280;17384;51.214;9.202;2023-09-18T00:05:13;98082.31;;;14.96;100.00
30618;BME280;17384;51.214;9.202;2023-09-18T00:07:43;98074.56;;;14.88;100.00
30618;BME280;17384;51.214;9.202;2023-09-18T00:10:10;98071.81;;;14.83;100.00
30618;BME280;17384;51.214;9.202;2023-09-18T00:12:35;98073.50;;;14.89;100.00
30618;BME280;17384;51.214;9.202;2023-09-18T00:15:01;98066.44;;;14.93;100.00
30618;BME280;17384;51.214;9.202;2023-09-18T00:17:26;98063.91;;;14.86;100.00
30618;BME280;17384;51.214;9.202;2023-09-18T00:19:52;98066.59;;;14.76;100.00
30618;BME280;17384;51.214;9.202;2023-09-18T00:22:17;98062.94;;;14.66;100.00
30618;BME280;17384;51.214;9.202;2023-09-18T00:24:43;98060.25;;;14.71;100.00
30618;BME280;17384;51.214;9.202;2023-09-18T00:27:08;98054.84;;;14.76;100.00
30618;BME280;17384;51.214;9.202;2023-09-18T00:29:36;98038.94;;;14.68;100.00
30618;BME280;17384;51.214;9.202;2023-09-18T00:32:01;98039.50;;;14.70;100.00
30618;BME280;17384;51.214;9.202;2023-09-18T00:34:26;98044.38;;;14.68;100.00
30618;BME280;17384;51.214;9.202;2023-09-18T00:36:52;98029.84;;;14.62;100.00
30618;BME280;17384;51.214;9.202;2023-09-18T00:39:17;98025.78;;;14.65;100.00
30618;BME280;17384;51.214;9.202;2023-09-18T00:41:43;98022.50;;;14.63;100.00
30618;BME280;17384;51.214;9.202;2023-09-18T00:44:09;98020.84;;;14.62;100.00
30618;BME280;17384;51.214;9.202;2023-09-18T00:46:35;98024.66;;;14.61;100.00
30618;BME280;17384;51.214;9.202;2023-09-18T00:49:01;98009.88;;;14.56;100.00
30618;BME280;17384;51.214;9.202;2023-09-18T00:51:28;98005.63;;;14.39;100.00
30618;BME280;17384;51.214;9.202;2023-09-18T00:53:53;98000.94;;;14.34;100.00
30618;BME280;17384;51.214;9.202;2023-09-18T00:56:19;98013.44;;;14.30;100.00
30618;BME280;17384;51.214;9.202;2023-09-18T00:58:45;98007.09;;;14.24;100.00
30618;BME280;17384;51.214;9.202;2023-09-18T01:01:11;98001.66;;;14.24;100.00
30618;BME280;17384;51.214;9.202;2023-09-18T01:03:41;98010.16;;;14.28;100.00
30618;BME280;17384;51.214;9.202;2023-09-18T01:06:07;98004.69;;;14.28;100.00
30618;BME280;17384;51.214;9.202;2023-09-18T01:08:32;97998.66;;;14.26;100.00
30618;BME280;17384;51.214;9.202;2023-09-18T01:11:14;97986.97;;;14.31;100.00
30618;BME280;17384;51.214;9.202;2023-09-18T01:14:09;97977.19;;;14.35;100.00
30618;BME280;17384;51.214;9.202;2023-09-18T01:16:44;97972.00;;;14.33;100.00
30618;BME280;17384;51.214;9.202;2023-09-18T01:19:10;97963.50;;;14.30;100.00
30618;BME280;17384;51.214;9.202;2023-09-18T01:21:36;97967.38;;;14.34;100.00
30618;BME280;17384;51.214;9.202;2023-09-18T01:24:02;97967.31;;;14.29;100.00
30618;BME280;17384;51.214;9.202;2023-09-18T01:26:28;97964.66;;;14.07;100.00
30618;BME280;17384;51.214;9.202;2023-09-18T01:28:53;97956.44;;;14.02;100.00
30618;BME280;17384;51.214;9.202;2023-09-18T01:31:19;97959.72;;;14.04;100.00
30618;BME280;17384;51.214;9.202;2023-09-18T01:33:46;97966.56;;;14.06;100.00
30618;BME280;17384;51.214;9.202;2023-09-18T01:36:13;97975.06;;;14.10;100.00
30618;BME280;17384;51.214;9.202;2023-09-18T01:38:41;97957.31;;;14.07;100.00
30618;BME280;17384;51.214;9.202;2023-09-18T01:41:07;97962.41;;;13.99;100.00
30618;BME280;17384;51.214;9.202;2023-09-18T01:43:34;97957.47;;;13.96;100.00
30618;BME280;17384;51.214;9.202;2023-09-18T01:46:00;97953.88;;;13.90;100.00
30618;BME280;17384;51.214;9.202;2023-09-18T01:48:26;97961.56;;;13.93;100.00
30618;BME280;17384;51.214;9.202;2023-09-18T01:50:52;97967.03;;;13.98;100.00
30618;BME280;17384;51.214;9.202;2023-09-18T01:53:17;97957.00;;;14.04;100.00
30618;BME280;17384;51.214;9.202;2023-09-18T01:55:43;97950.41;;;14.00;100.00
30618;BME280;17384;51.214;9.202;2023-09-18T01:58:09;97971.16;;;14.01;100.00
30618;BME280;17384;51.214;9.202;2023-09-18T02:00:35;97966.75;;;13.95;100.00
30618;BME280;17384;51.214;9.202;2023-09-18T02:03:01;97958.13;;;13.81;100.00
30618;BME280;17384;51.214;9.202;2023-09-18T02:05:27;97961.88;;;13.75;100.00
30618;BME280;17384;51.214;9.202;2023-09-18T02:07:52;97965.44;;;13.75;100.00
30618;BME280;17384;51.214;9.202;2023-09-18T02:10:18;97963.84;;;13.79;100.00
30618;BME280;17384;51.214;9.202;2023-09-18T02:12:43;97959.78;;;13.82;100.00
30618;BME280;17384;51.214;9.202;2023-09-18T02:15:09;97950.22;;;13.79;100.00
30618;BME280;17384;51.214;9.202;2023-09-18T02:17:36;97944.19;;;13.77;100.00
30618;BME280;17384;51.214;9.202;2023-09-18T02:20:03;97944.00;;;13.84;100.00
30618;BME280;17384;51.214;9.202;2023-09-18T02:22:35;97951.97;;;13.91;100.00
30618;BME280;17384;51.214;9.202;2023-09-18T02:25:01;97943.50;;;13.87;100.00
30618;BME280;17384;51.214;9.202;2023-09-18T02:27:27;97935.50;;;13.80;100.00
30618;BME280;17384;51.214;9.202;2023-09-18T02:29:52;97933.09;;;13.57;100.00
30618;BME280;17384;51.214;9.202;2023-09-18T02:32:19;97928.22;;;13.59;100.00
30618;BME280;17384;51.214;9.202;2023-09-18T02:34:44;97920.03;;;13.59;100.00
30618;BME280;17384;51.214;9.202;2023-09-18T02:37:10;97922.56;;;13.66;100.00
30618;BME280;17384;51.214;9.202;2023-09-18T02:39:36;97912.19;;;13.68;100.00
30618;BME280;17384;51.214;9.202;2023-09-18T02:42:09;97911.69;;;13.71;100.00
30618;BME280;17384;51.214;9.202;2023-09-18T02:44:35;97893.91;;;13.63;100.00
30618;BME280;17384;51.214;9.202;2023-09-18T02:47:01;97890.44;;;13.46;100.00
30618;BME280;17384;51.214;9.202;2023-09-18T02:49:26;97901.09;;;13.47;100.00
30618;BME280;17384;51.214;9.202;2023-09-18T02:51:52;97894.06;;;13.51;100.00
30618;BME280;17384;51.214;9.202;2023-09-18T02:54:18;97878.31;;;13.59;100.00
30618;BME280;17384;51.214;9.202;2023-09-18T02:56:43;97888.53;;;13.73;100.00
30618;BME280;17384;51.214;9.202;2023-09-18T02:59:23;97880.72;;;13.82;100.00
30618;BME280;17384;51.214;9.202;2023-09-18T03:01:49;97874.44;;;13.81;100.00
30618;BME280;17384;51.214;9.202;2023-09-18T03:04:14;97865.59;;;13.69;100.00
30618;BME280;17384;51.214;9.202;2023-09-18T03:06:40;97861.78;;;13.65;100.00
30618;BME280;17384;51.214;9.202;2023-09-18T03:09:06;97857.91;;;13.61;100.00
30618;BME280;17384;51.214;9.202;2023-09-18T03:11:32;97841.47;;;13.51;100.00
30618;BME280;17384;51.214;9.202;2023-09-18T03:13:57;97849.25;;;13.37;100.00
30618;BME280;17384;51.214;9.202;2023-09-18T03:16:23;97852.78;;;13.38;100.00
30618;BME280;17384;51.214;9.202;2023-09-18T03:18:49;97835.81;;;13.31;100.00
30618;BME280;17384;51.214;9.202;2023-09-18T03:21:15;97853.88;;;13.42;100.00
30618;BME280;17384;51.214;9.202;2023-09-18T03:23:40;97850.31;;;13.63;100.00
30618;BME280;17384;51.214;9.202;2023-09-18T03:26:06;97846.44;;;13.59;100.00
30618;BME280;17384;51.214;9.202;2023-09-18T03:28:32;97850.31;;;13.68;100.00
30618;BME280;17384;51.214;9.202;2023-09-18T03:30:58;97844.84;;;13.63;100.00
30618;BME280;17384;51.214;9.202;2023-09-18T03:33:24;97849.47;;;13.63;100.00
30618;BME280;17384;51.214;9.202;2023-09-18T03:35:51;97847.31;;;13.65;100.00
30618;BME280;17384;51.214;9.202;2023-09-18T03:38:20;97833.13;;;13.63;100.00
30618;BME280;17384;51.214;9.202;2023-09-18T03:40:46;97843.25;;;13.67;100.00
30618;BME280;17384;51.214;9.202;2023-09-18T03:43:11;97850.53;;;13.88;100.00
30618;BME280;17384;51.214;9.202;2023-09-18T03:45:37;97859.06;;;14.02;100.00
30618;BME280;17384;51.214;9.202;2023-09-18T03:48:04;97882.94;;;14.17;100.00
30618;BME280;17384;51.214;9.202;2023-09-18T03:50:30;97885.56;;;14.07;100.00
30618;BME280;17384;51.214;9.202;2023-09-18T03:52:55;97890.47;;;14.05;100.00
30618;BME280;17384;51.214;9.202;2023-09-18T03:55:21;97869.63;;;13.88;100.00
30618;BME280;17384;51.214;9.202;2023-09-18T03:57:46;97872.34;;;13.88;100.00
30618;BME280;17384;51.214;9.202;2023-09-18T04:00:14;97861.69;;;13.87;100.00
30618;BME280;17384;51.214;9.202;2023-09-18T04:02:40;97862.59;;;13.98;100.00
30618;BME280;17384;51.214;9.202;2023-09-18T04:05:06;97849.94;;;14.23;100.00
30618;BME280;17384;51.214;9.202;2023-09-18T04:07:32;97842.72;;;14.39;100.00
30618;BME280;17384;51.214;9.202;2023-09-18T04:09:58;97823.50;;;14.66;100.00
30618;BME280;17384;51.214;9.202;2023-09-18T04:12:23;97820.88;;;14.86;100.00
30618;BME280;17384;51.214;9.202;2023-09-18T04:14:49;97813.31;;;15.14;100.00
30618;BME280;17384;51.214;9.202;2023-09-18T04:17:15;97809.28;;;15.42;100.00
30618;BME280;17384;51.214;9.202;2023-09-18T04:19:40;97807.94;;;15.60;100.00
30618;BME280;17384;51.214;9.202;2023-09-18T04:22:06;97795.94;;;15.71;100.00
30618;BME280;17384;51.214;9.202;2023-09-18T04:24:31;97784.97;;;15.61;100.00
30618;BME280;17384;51.214;9.202;2023-09-18T04:26:57;97789.34;;;15.62;100.00
30618;BME280;17384;51.214;9.202;2023-09-18T04:29:22;97801.97;;;15.78;100.00
30618;BME280;17384;51.214;9.202;2023-09-18T04:31:48;97800.03;;;15.99;100.00
30618;BME280;17384;51.214;9.202;2023-09-18T04:34:14;97795.66;;;16.08;100.00
30618;BME280;17384;51.214;9.202;2023-09-18T04:36:39;97787.72;;;16.11;100.00
30618;BME280;17384;51.214;9.202;2023-09-18T04:39:05;97771.78;;;16.29;100.00
30618;BME280;17384;51.214;9.202;2023-09-18T04:41:32;97772.34;;;16.36;100.00
30618;BME280;17384;51.214;9.202;2023-09-18T04:43:57;97761.06;;;16.42;100.00
30618;BME280;17384;51.214;9.202;2023-09-18T04:46:23;97747.84;;;16.70;100.00
30618;BME280;17384;51.214;9.202;2023-09-18T04:48:52;97737.94;;;16.84;100.00
30618;BME280;17384;51.214;9.202;2023-09-18T04:51:17;97730.78;;;16.93;100.00
30618;BME280;17384;51.214;9.202;2023-09-18T04:53:43;97744.13;;;17.05;100.00
30618;BME280;17384;51.214;9.202;2023-09-18T04:56:09;97748.72;;;17.14;100.00
30618;BME280;17384;51.214;9.202;2023-09-18T04:58:35;97736.16;;;17.08;100.00
30618;BME280;17384;51.214;9.202;2023-09-18T05:01:03;97744.41;;;17.03;100.00
30618;BME280;17384;51.214;9.202;2023-09-18T05:03:32;97740.81;;;17.08;100.00
30618;BME280;17384;51.214;9.202;2023-09-18T05:05:58;97738.34;;;17.06;100.00
30618;BME280;17384;51.214;9.202;2023-09-18T05:08:23;97719.75;;;16.98;100.00
30618;BME280;17384;51.214;9.202;2023-09-18T05:10:48;97726.69;;;16.85;100.00
30618;BME280;17384;51.214;9.202;2023-09-18T05:13:14;97721.22;;;16.85;100.00
30618;BME280;17384;51.214;9.202;2023-09-18T05:15:39;97720.94;;;16.87;100.00
30618;BME280;17384;51.214;9.202;2023-09-18T05:18:05;97718.94;;;16.98;100.00
30618;BME280;17384;51.214;9.202;2023-09-18T05:20:31;97732.34;;;16.99;100.00
30618;BME280;17384;51.214;9.202;2023-09-18T05:22:57;97724.13;;;17.04;100.00
30618;BME280;17384;51.214;9.202;2023-09-18T05:25:25;97718.94;;;16.98;100.00
30618;BME280;17384;51.214;9.202;2023-09-18T05:27:52;97719.81;;;16.93;100.00
30618;BME280;17384;51.214;9.202;2023-09-18T05:30:28;97721.59;;;17.13;100.00
30618;BME280;17384;51.214;9.202;2023-09-18T05:32:58;97695.03;;;17.08;100.00
30618;BME280;17384;51.214;9.202;2023-09-18T05:35:30;97698.34;;;17.05;100.00
30618;BME280;17384;51.214;9.202;2023-09-18T05:37:55;97701.06;;;17.10;100.00
30618;BME280;17384;51.214;9.202;2023-09-18T05:40:22;97686.81;;;17.08;100.00
30618;BME280;17384;51.214;9.202;2023-09-18T05:42:48;97680.31;;;16.99;100.00
30618;BME280;17384;51.214;9.202;2023-09-18T05:45:14;97676.00;;;16.88;100.00
30618;BME280;17384;51.214;9.202;2023-09-18T05:47:40;97683.38;;;16.92;100.00
30618;BME280;17384;51.214;9.202;2023-09-18T05:50:07;97672.63;;;17.01;100.00
30618;BME280;17384;51.214;9.202;2023-09-18T05:52:33;97674.22;;;17.07;100.00
30618;BME280;17384;51.214;9.202;2023-09-18T05:55:02;97661.94;;;17.00;100.00
30618;BME280;17384;51.214;9.202;2023-09-18T05:57:28;97661.94;;;17.00;100.00
30618;BME280;17384;51.214;9.202;2023-09-18T05:59:56;97670.44;;;16.98;100.00
30618;BME280;17384;51.214;9.202;2023-09-18T06:02:23;97664.41;;;17.01;100.00
30618;BME280;17384;51.214;9.202;2023-09-18T06:04:57;97667.22;;;17.25;100.00
30618;BME280;17384;51.214;9.202;2023-09-18T06:07:26;97675.91;;;17.37;100.00
30618;BME280;17384;51.214;9.202;2023-09-18T06:09:52;97659.50;;;17.66;100.00
30618;BME280;17384;51.214;9.202;2023-09-18T06:12:17;97666.66;;;17.91;100.00
30618;BME280;17384;51.214;9.202;2023-09-18T06:14:43;97670.53;;;18.14;100.00
30618;BME280;17384;51.214;9.202;2023-09-18T06:17:10;97664.09;;;18.23;100.00
30618;BME280;17384;51.214;9.202;2023-09-18T06:19:36;97677.84;;;18.23;100.00
30618;BME280;17384;51.214;9.202;2023-09-18T06:22:02;97689.19;;;18.36;100.00
30618;BME280;17384;51.214;9.202;2023-09-18T06:24:27;97702.13;;;18.35;100.00
30618;BME280;17384;51.214;9.202;2023-09-18T06:26:53;97712.69;;;18.23;100.00
30618;BME280;17384;51.214;9.202;2023-09-18T06:29:19;97707.06;;;18.33;100.00
30618;BME280;17384;51.214;9.202;2023-09-18T06:31:45;97702.78;;;18.27;100.00
30618;BME280;17384;51.214;9.202;2023-09-18T06:34:10;97698.69;;;18.24;100.00
30618;BME280;17384;51.214;9.202;2023-09-18T06:36:37;97710.97;;;18.32;100.00
30618;BME280;17384;51.214;9.202;2023-09-18T06:39:06;97714.56;;;18.51;100.00
30618;BME280;17384;51.214;9.202;2023-09-18T06:41:32;97700.94;;;18.65;100.00
30618;BME280;17384;51.214;9.202;2023-09-18T06:43:57;97703.00;;;18.78;100.00
30618;BME280;17384;51.214;9.202;2023-09-18T06:46:23;97706.69;;;18.87;100.00
30618;BME280;17384;51.214;9.202;2023-09-18T06:48:48;97713.91;;;19.02;100.00
30618;BME280;17384;51.214;9.202;2023-09-18T06:51:19;97705.66;;;19.21;100.00
30618;BME280;17384;51.214;9.202;2023-09-18T06:53:44;97711.31;;;19.30;100.00
30618;BME280;17384;51.214;9.202;2023-09-18T06:56:10;97700.84;;;19.32;100.00
30618;BME280;17384;51.214;9.202;2023-09-18T06:58:38;97706.34;;;19.50;100.00
30618;BME280;17384;51.214;9.202;2023-09-18T07:01:03;97699.56;;;19.62;100.00
30618;BME280;17384;51.214;9.202;2023-09-18T07:03:32;97698.06;;;19.69;99.59
30618;BME280;17384;51.214;9.202;2023-09-18T07:06:00;97678.38;;;19.76;98.16
30618;BME280;17384;51.214;9.202;2023-09-18T07:08:25;97694.94;;;19.89;98.20
30618;BME280;17384;51.214;9.202;2023-09-18T07:10:51;97692.91;;;19.95;98.70
30618;BME280;17384;51.214;9.202;2023-09-18T07:13:16;97691.78;;;19.96;97.71
30618;BME280;17384;51.214;9.202;2023-09-18T07:15:42;97693.22;;;19.93;97.79
30618;BME280;17384;51.214;9.202;2023-09-18T07:18:07;97685.97;;;19.98;97.98
30618;BME280;17384;51.214;9.202;2023-09-18T07:20:34;97682.59;;;20.01;96.86
30618;BME280;17384;51.214;9.202;2023-09-18T07:23:01;97688.41;;;19.99;96.94
30618;BME280;17384;51.214;9.202;2023-09-18T07:25:26;97698.00;;;20.02;96.87
30618;BME280;17384;51.214;9.202;2023-09-18T07:27:52;97695.75;;;20.04;96.54
30618;BME280;17384;51.214;9.202;2023-09-18T07:30:17;97715.63;;;20.01;96.00
30618;BME280;17384;51.214;9.202;2023-09-18T07:32:45;97705.75;;;20.00;97.00
30618;BME280;17384;51.214;9.202;2023-09-18T07:35:11;97702.47;;;19.98;97.79
30618;BME280;17384;51.214;9.202;2023-09-18T07:37:38;97704.84;;;19.90;96.31
30618;BME280;17384;51.214;9.202;2023-09-18T07:40:05;97702.06;;;19.90;97.30
30618;BME280;17384;51.214;9.202;2023-09-18T07:42:31;97690.84;;;19.87;97.82
30618;BME280;17384;51.214;9.202;2023-09-18T07:44:56;97709.31;;;19.86;96.94
30618;BME280;17384;51.214;9.202;2023-09-18T07:47:22;97711.47;;;19.89;97.45
30618;BME280;17384;51.214;9.202;2023-09-18T07:49:48;97726.34;;;19.88;97.39
30618;BME280;17384;51.214;9.202;2023-09-18T07:52:13;97722.78;;;19.88;97.36
30618;BME280;17384;51.214;9.202;2023-09-18T07:54:40;97736.84;;;19.86;97.96
30618;BME280;17384;51.214;9.202;2023-09-18T07:57:08;97738.09;;;19.94;96.80
30618;BME280;17384;51.214;9.202;2023-09-18T07:59:37;97749.91;;;19.94;96.85
30618;BME280;17384;51.214;9.202;2023-09-18T08:02:04;97743.16;;;20.01;96.48
30618;BME280;17384;51.214;9.202;2023-09-18T08:04:33;97731.66;;;19.99;97.11
30618;BME280;17384;51.214;9.202;2023-09-18T08:06:58;97727.47;;;20.01;96.59
30618;BME280;17384;51.214;9.202;2023-09-18T08:09:25;97734.91;;;20.01;96.51
30618;BME280;17384;51.214;9.202;2023-09-18T08:11:52;97740.22;;;19.97;96.90
30618;BME280;17384;51.214;9.202;2023-09-18T08:14:23;97736.75;;;20.05;97.48
30618;BME280;17384;51.214;9.202;2023-09-18T08:16:56;97758.34;;;19.98;96.71
30618;BME280;17384;51.214;9.202;2023-09-18T08:19:22;97747.84;;;20.00;97.62
30618;BME280;17384;51.214;9.202;2023-09-18T08:21:48;97744.94;;;19.97;97.45
30618;BME280;17384;51.214;9.202;2023-09-18T08:24:14;97769.78;;;19.91;97.85
30618;BME280;17384;51.214;9.202;2023-09-18T08:26:39;97770.97;;;19.85;98.33
30618;BME280;17384;51.214;9.202;2023-09-18T08:29:05;97767.94;;;19.87;97.86
30618;BME280;17384;51.214;9.202;2023-09-18T08:31:30;97784.44;;;19.87;99.48
30618;BME280;17384;51.214;9.202;2023-09-18T08:33:57;97777.59;;;19.84;100.00
30618;BME280;17384;51.214;9.202;2023-09-18T08:36:23;97787.50;;;19.85;100.00
30618;BME280;17384;51.214;9.202;2023-09-18T08:38:48;97789.72;;;19.83;100.00
30618;BME280;17384;51.214;9.202;2023-09-18T08:41:17;97817.56;;;19.82;100.00
30618;BME280;17384;51.214;9.202;2023-09-18T08:43:43;97805.13;;;19.84;98.42
30618;BME280;17384;51.214;9.202;2023-09-18T08:46:10;97811.16;;;19.86;99.05
30618;BME280;17384;51.214;9.202;2023-09-18T08:48:36;97811.75;;;19.83;99.17
30618;BME280;17384;51.214;9.202;2023-09-18T08:51:04;97811.31;;;19.76;98.12
30618;BME280;17384;51.214;9.202;2023-09-18T08:53:34;97807.44;;;19.77;98.74
30618;BME280;17384;51.214;9.202;2023-09-18T08:56:00;97801.34;;;19.80;98.72
30618;BME280;17384;51.214;9.202;2023-09-18T08:58:33;97802.16;;;19.81;98.69
30618;BME280;17384;51.214;9.202;2023-09-18T09:01:01;97803.03;;;19.76;99.42
30618;BME280;17384;51.214;9.202;2023-09-18T09:03:29;97806.16;;;19.70;98.74
30618;BME280;17384;51.214;9.202;2023-09-18T09:05:55;97807.63;;;19.67;99.08
30618;BME280;17384;51.214;9.202;2023-09-18T09:08:21;97813.13;;;19.67;98.44
30618;BME280;17384;51.214;9.202;2023-09-18T09:10:46;97798.84;;;19.65;99.61
30618;BME280;17384;51.214;9.202;2023-09-18T09:13:14;97800.78;;;19.65;99.67
30618;BME280;17384;51.214;9.202;2023-09-18T09:15:47;97801.06;;;19.63;99.66
30618;BME280;17384;51.214;9.202;2023-09-18T09:18:14;97797.78;;;19.61;99.72
30618;BME280;17384;51.214;9.202;2023-09-18T09:20:56;97790.69;;;19.74;100.00
30618;BME280;17384;51.214;9.202;2023-09-18T09:23:29;97790.63;;;19.79;99.34
30618;BME280;17384;51.214;9.202;2023-09-18T09:26:15;97784.38;;;19.73;98.68
30618;BME280;17384;51.214;9.202;2023-09-18T09:28:42;97797.31;;;19.73;100.00
30618;BME280;17384;51.214;9.202;2023-09-18T09:31:09;97810.88;;;19.69;100.00
30618;BME280;17384;51.214;9.202;2023-09-18T09:33:36;97798.72;;;19.70;100.00
30618;BME280;17384;51.214;9.202;2023-09-18T09:36:05;97795.78;;;19.67;100.00
30618;BME280;17384;51.214;9.202;2023-09-18T09:38:34;97798.25;;;19.68;100.00
30618;BME280;17384;51.214;9.202;2023-09-18T09:41:00;97767.50;;;19.80;100.00
30618;BME280;17384;51.214;9.202;2023-09-18T09:43:27;97780.34;;;19.84;99.17
30618;BME280;17384;51.214;9.202;2023-09-18T09:46:00;97766.75;;;20.07;99.33
30618;BME280;17384;51.214;9.202;2023-09-18T09:48:27;97769.94;;;20.14;98.21
30618;BME280;17384;51.214;9.202;2023-09-18T09:50:57;97767.50;;;20.26;99.13
30618;BME280;17384;51.214;9.202;2023-09-18T09:53:44;97774.63;;;20.27;97.40
30618;BME280;17384;51.214;9.202;2023-09-18T09:56:12;97790.34;;;20.26;98.51
30618;BME280;17384;51.214;9.202;2023-09-18T09:58:38;97788.09;;;20.15;95.79
30618;BME280;17384;51.214;9.202;2023-09-18T10:01:08;97789.00;;;20.10;97.86
30618;BME280;17384;51.214;9.202;2023-09-18T10:03:38;97771.13;;;20.08;97.01
30618;BME280;17384;51.214;9.202;2023-09-18T10:06:04;97775.22;;;20.10;97.32
30618;BME280;17384;51.214;9.202;2023-09-18T10:08:31;97774.13;;;20.25;96.19
30618;BME280;17384;51.214;9.202;2023-09-18T10:11:06;97775.81;;;20.40;97.60
30618;BME280;17384;51.214;9.202;2023-09-18T10:13:41;97791.03;;;20.37;95.05
30618;BME280;17384;51.214;9.202;2023-09-18T10:16:09;97806.19;;;20.35;95.04
30618;BME280;17384;51.214;9.202;2023-09-18T10:26:41;97801.19;;;20.23;94.50
30618;BME280;17384;51.214;9.202;2023-09-18T10:29:13;97813.13;;;20.32;96.42
30618;BME280;17384;51.214;9.202;2023-09-18T10:31:40;97815.22;;;20.40;95.00
30618;BME280;17384;51.214;9.202;2023-09-18T10:34:06;97824.44;;;20.49;93.77
30618;BME280;17384;51.214;9.202;2023-09-18T10:36:32;97831.25;;;20.52;93.27
30618;BME280;17384;51.214;9.202;2023-09-18T10:38:59;97830.75;;;20.50;94.12
30618;BME280;17384;51.214;9.202;2023-09-18T10:41:26;97837.69;;;20.47;94.40
30618;BME280;17384;51.214;9.202;2023-09-18T10:43:55;97832.25;;;20.42;92.97
30618;BME280;17384;51.214;9.202;2023-09-18T10:46:26;97831.22;;;20.38;94.10
30618;BME280;17384;51.214;9.202;2023-09-18T10:48:52;97839.13;;;20.26;94.30
30618;BME280;17384;51.214;9.202;2023-09-18T10:51:21;97824.84;;;20.24;94.98
30618;BME280;17384;51.214;9.202;2023-09-18T10:53:49;97809.13;;;20.24;95.20
30618;BME280;17384;51.214;9.202;2023-09-18T10:56:19;97819.22;;;20.29;95.21
30618;BME280;17384;51.214;9.202;2023-09-18T10:58:46;97813.72;;;20.29;94.13
30618;BME280;17384;51.214;9.202;2023-09-18T11:01:14;97809.03;;;20.29;96.32
30618;BME280;17384;51.214;9.202;2023-09-18T11:03:40;97793.41;;;20.25;94.39
30618;BME280;17384;51.214;9.202;2023-09-18T11:06:15;97791.28;;;20.22;94.59
30618;BME280;17384;51.214;9.202;2023-09-18T11:08:44;97807.00;;;20.35;94.08
30618;BME280;17384;51.214;9.202;2023-09-18T11:11:12;97821.38;;;20.32;94.33
30618;BME280;17384;51.214;9.202;2023-09-18T11:13:45;97820.34;;;20.47;93.73
30618;BME280;17384;51.214;9.202;2023-09-18T11:21:29;97831.97;;;20.44;94.58
30618;BME280;17384;51.214;9.202;2023-09-18T11:24:05;97831.88;;;20.30;94.32
30618;BME280;17384;51.214;9.202;2023-09-18T11:26:36;97837.31;;;20.35;92.65
30618;BME280;17384;51.214;9.202;2023-09-18T11:29:08;97831.28;;;20.33;92.18
30618;BME280;17384;51.214;9.202;2023-09-18T11:36:40;97809.25;;;20.33;92.29
30618;BME280;17384;51.214;9.202;2023-09-18T11:39:05;97816.25;;;20.44;92.69
30618;BME280;17384;51.214;9.202;2023-09-18T11:41:33;97828.91;;;20.45;91.33
30618;BME280;17384;51.214;9.202;2023-09-18T11:46:49;97830.41;;;20.38;93.44
30618;BME280;17384;51.214;9.202;2023-09-18T11:49:24;97826.97;;;20.46;92.18
30618;BME280;17384;51.214;9.202;2023-09-18T11:51:54;97840.53;;;20.56;93.36
30618;BME280;17384;51.214;9.202;2023-09-18T11:54:20;97839.50;;;20.52;91.30
30618;BME280;17384;51.214;9.202;2023-09-18T11:56:46;97839.94;;;20.45;90.95
30618;BME280;17384;51.214;9.202;2023-09-18T11:59:12;97826.75;;;20.42;91.05
30618;BME280;17384;51.214;9.202;2023-09-18T12:01:38;97822.97;;;20.38;91.81
30618;BME280;17384;51.214;9.202;2023-09-18T12:04:12;97833.16;;;20.38;92.37
30618;BME280;17384;51.214;9.202;2023-09-18T12:06:39;97829.88;;;20.36;92.38
30618;BME280;17384;51.214;9.202;2023-09-18T12:09:06;97828.63;;;20.28;94.65
30618;BME280;17384;51.214;9.202;2023-09-18T12:11:35;97831.34;;;20.47;93.87
30618;BME280;17384;51.214;9.202;2023-09-18T12:14:04;97825.16;;;20.36;93.31
30618;BME280;17384;51.214;9.202;2023-09-18T12:16:30;97838.81;;;20.46;92.49
30618;BME280;17384;51.214;9.202;2023-09-18T12:18:55;97824.22;;;20.27;94.41
30618;BME280;17384;51.214;9.202;2023-09-18T12:21:22;97834.22;;;20.55;92.79
30618;BME280;17384;51.214;9.202;2023-09-18T12:23:48;97824.22;;;20.46;92.21
30618;BME280;17384;51.214;9.202;2023-09-18T12:26:16;97829.34;;;20.34;92.35
30618;BME280;17384;51.214;9.202;2023-09-18T12:28:44;97826.59;;;20.34;93.60
30618;BME280;17384;51.214;9.202;2023-09-18T12:31:14;97816.16;;;20.31;93.76
30618;BME280;17384;51.214;9.202;2023-09-18T12:33:42;97812.31;;;20.32;94.36
30618;BME280;17384;51.214;9.202;2023-09-18T12:36:19;97809.63;;;20.26;93.12
30618;BME280;17384;51.214;9.202;2023-09-18T12:38:55;97817.44;;;20.38;93.70
30618;BME280;17384;51.214;9.202;2023-09-18T12:41:24;97810.34;;;20.51;92.61
30618;BME280;17384;51.214;9.202;2023-09-18T12:43:50;97822.88;;;20.57;92.08
30618;BME280;17384;51.214;9.202;2023-09-18T12:46:15;97812.50;;;20.68;91.26
30618;BME280;17384;51.214;9.202;2023-09-18T12:48:43;97823.44;;;20.73;90.38
30618;BME280;17384;51.214;9.202;2023-09-18T12:51:12;97819.13;;;20.67;90.36
30618;BME280;17384;51.214;9.202;2023-09-18T12:53:39;97833.34;;;20.74;90.91
30618;BME280;17384;51.214;9.202;2023-09-18T12:56:08;97822.63;;;21.00;89.41
30618;BME280;17384;51.214;9.202;2023-09-18T12:58:34;97827.22;;;21.04;88.85
30618;BME280;17384;51.214;9.202;2023-09-18T13:01:03;97840.47;;;20.88;89.13
30618;BME280;17384;51.214;9.202;2023-09-18T13:03:34;97838.25;;;20.77;89.22
30618;BME280;17384;51.214;9.202;2023-09-18T13:06:18;97818.31;;;20.80;89.52
30618;BME280;17384;51.214;9.202;2023-09-18T13:08:45;97824.84;;;21.11;89.49
30618;BME280;17384;51.214;9.202;2023-09-18T13:11:11;97823.31;;;21.19;88.60
30618;BME280;17384;51.214;9.202;2023-09-18T13:13:37;97820.03;;;21.17;87.34
30618;BME280;17384;51.214;9.202;2023-09-18T13:16:07;97811.34;;;21.37;86.24